sensor_id;sensor_type;location;lat;lon;timestamp;P1;durP1;ratioP1;P2;durP2;ratioP2
56363;SDS011;42261;52.094;4.326;2022-09-13T00:00:31;5.28;;;3.97;;
56363;SDS011;42261;52.094;4.326;2022-09-13T00:03:15;7.22;;;4.05;;
56363;SDS011;42261;52.094;4.326;2022-09-13T00:06:33;4.93;;;3.92;;
56363;SDS011;42261;52.094;4.326;2022-09-13T00:09:10;6.00;;;4.47;;
56363;SDS011;42261;52.094;4.326;2022-09-13T00:11:55;6.35;;;3.85;;
56363;SDS011;42261;52.094;4.326;2022-09-13T00:14:40;5.90;;;3.35;;
56363;SDS011;42261;52.094;4.326;2022-09-13T00:17:24;8.93;;;4.13;;
56363;SDS011;42261;52.094;4.326;2022-09-13T00:20:09;7.38;;;4.18;;
56363;SDS011;42261;52.094;4.326;2022-09-13T00:22:53;7.72;;;4.63;;
56363;SDS011;42261;52.094;4.326;2022-09-13T00:25:37;8.05;;;3.80;;
56363;SDS011;42261;52.094;4.326;2022-09-13T00:28:22;7.85;;;4.63;;
56363;SDS011;42261;52.094;4.326;2022-09-13T00:31:08;8.35;;;4.70;;
56363;SDS011;42261;52.094;4.326;2022-09-13T00:33:53;6.70;;;4.75;;
56363;SDS011;42261;52.094;4.326;2022-09-13T00:36:37;8.18;;;4.72;;
56363;SDS011;42261;52.094;4.326;2022-09-13T00:39:21;10.23;;;4.72;;
56363;SDS011;42261;52.094;4.326;2022-09-13T00:42:10;8.95;;;5.25;;
56363;SDS011;42261;52.094;4.326;2022-09-13T00:50:50;9.70;;;5.05;;
56363;SDS011;42261;52.094;4.326;2022-09-13T00:53:37;9.20;;;4.80;;
56363;SDS011;42261;52.094;4.326;2022-09-13T00:56:42;7.38;;;4.97;;
56363;SDS011;42261;52.094;4.326;2022-09-13T00:59:29;8.60;;;4.55;;
56363;SDS011;42261;52.094;4.326;2022-09-13T01:02:17;9.77;;;4.80;;
56363;SDS011;42261;52.094;4.326;2022-09-13T01:05:01;9.70;;;4.75;;
56363;SDS011;42261;52.094;4.326;2022-09-13T01:07:46;8.05;;;4.35;;
56363;SDS011;42261;52.094;4.326;2022-09-13T01:10:30;11.88;;;4.40;;
56363;SDS011;42261;52.094;4.326;2022-09-13T01:16:04;6.93;;;4.10;;
56363;SDS011;42261;52.094;4.326;2022-09-13T01:18:48;9.07;;;4.20;;
56363;SDS011;42261;52.094;4.326;2022-09-13T01:21:43;6.53;;;4.25;;
56363;SDS011;42261;52.094;4.326;2022-09-13T01:34:08;6.78;;;3.97;;
56363;SDS011;42261;52.094;4.326;2022-09-13T01:52:28;6.97;;;3.67;;
56363;SDS011;42261;52.094;4.326;2022-09-13T01:58:34;8.98;;;4.32;;
56363;SDS011;42261;52.094;4.326;2022-09-13T02:01:24;4.97;;;3.33;;
56363;SDS011;42261;52.094;4.326;2022-09-13T02:04:21;8.95;;;4.20;;
56363;SDS011;42261;52.094;4.326;2022-09-13T02:09:58;6.40;;;3.58;;
56363;SDS011;42261;52.094;4.326;2022-09-13T02:12:44;6.05;;;3.80;;
56363;SDS011;42261;52.094;4.326;2022-09-13T02:15:43;4.15;;;3.53;;
56363;SDS011;42261;52.094;4.326;2022-09-13T02:18:42;6.25;;;3.75;;
56363;SDS011;42261;52.094;4.326;2022-09-13T02:21:30;5.60;;;3.65;;
56363;SDS011;42261;52.094;4.326;2022-09-13T02:24:18;7.30;;;4.70;;
56363;SDS011;42261;52.094;4.326;2022-09-13T02:27:14;8.85;;;4.53;;
56363;SDS011;42261;52.094;4.326;2022-09-13T02:30:09;6.32;;;3.53;;
56363;SDS011;42261;52.094;4.326;2022-09-13T02:33:04;5.65;;;3.55;;
56363;SDS011;42261;52.094;4.326;2022-09-13T02:35:55;4.78;;;3.50;;
56363;SDS011;42261;52.094;4.326;2022-09-13T02:38:44;6.65;;;3.90;;
56363;SDS011;42261;52.094;4.326;2022-09-13T02:41:35;5.95;;;3.92;;
56363;SDS011;42261;52.094;4.326;2022-09-13T02:44:47;7.88;;;3.92;;
56363;SDS011;42261;52.094;4.326;2022-09-13T02:47:40;4.97;;;3.45;;
56363;SDS011;42261;52.094;4.326;2022-09-13T02:59:23;4.50;;;3.60;;
56363;SDS011;42261;52.094;4.326;2022-09-13T03:02:09;5.97;;;3.75;;
56363;SDS011;42261;52.094;4.326;2022-09-13T03:04:57;5.60;;;3.67;;
56363;SDS011;42261;52.094;4.326;2022-09-13T03:07:42;6.88;;;4.50;;
56363;SDS011;42261;52.094;4.326;2022-09-13T03:10:27;5.43;;;3.67;;
56363;SDS011;42261;52.094;4.326;2022-09-13T03:16:50;5.40;;;4.32;;
56363;SDS011;42261;52.094;4.326;2022-09-13T03:23:15;8.43;;;4.07;;
56363;SDS011;42261;52.094;4.326;2022-09-13T03:26:24;5.82;;;4.25;;
56363;SDS011;42261;52.094;4.326;2022-09-13T03:29:30;7.65;;;4.05;;
56363;SDS011;42261;52.094;4.326;2022-09-13T03:32:46;6.30;;;4.28;;
56363;SDS011;42261;52.094;4.326;2022-09-13T03:35:47;7.53;;;4.47;;
56363;SDS011;42261;52.094;4.326;2022-09-13T03:38:41;9.57;;;4.10;;
56363;SDS011;42261;52.094;4.326;2022-09-13T03:41:34;7.20;;;4.53;;
56363;SDS011;42261;52.094;4.326;2022-09-13T03:44:20;6.32;;;4.50;;
56363;SDS011;42261;52.094;4.326;2022-09-13T03:47:06;8.45;;;4.45;;
56363;SDS011;42261;52.094;4.326;2022-09-13T03:49:51;6.38;;;4.55;;
56363;SDS011;42261;52.094;4.326;2022-09-13T03:52:35;7.20;;;4.63;;
56363;SDS011;42261;52.094;4.326;2022-09-13T03:55:20;8.68;;;5.32;;
56363;SDS011;42261;52.094;4.326;2022-09-13T03:58:04;6.15;;;4.32;;
56363;SDS011;42261;52.094;4.326;2022-09-13T04:00:48;7.38;;;5.00;;
56363;SDS011;42261;52.094;4.326;2022-09-13T04:03:32;7.65;;;4.68;;
56363;SDS011;42261;52.094;4.326;2022-09-13T04:06:17;10.10;;;5.35;;
56363;SDS011;42261;52.094;4.326;2022-09-13T04:09:01;7.22;;;4.93;;
56363;SDS011;42261;52.094;4.326;2022-09-13T04:11:45;8.35;;;4.15;;
56363;SDS011;42261;52.094;4.326;2022-09-13T04:14:29;7.18;;;4.10;;
56363;SDS011;42261;52.094;4.326;2022-09-13T04:17:15;6.00;;;4.95;;
56363;SDS011;42261;52.094;4.326;2022-09-13T04:20:01;8.25;;;4.80;;
56363;SDS011;42261;52.094;4.326;2022-09-13T04:22:52;6.10;;;4.15;;
56363;SDS011;42261;52.094;4.326;2022-09-13T04:25:38;5.93;;;4.80;;
56363;SDS011;42261;52.094;4.326;2022-09-13T04:28:23;6.35;;;3.92;;
56363;SDS011;42261;52.094;4.326;2022-09-13T04:31:08;7.22;;;4.43;;
56363;SDS011;42261;52.094;4.326;2022-09-13T04:33:53;6.00;;;3.67;;
56363;SDS011;42261;52.094;4.326;2022-09-13T04:36:37;7.57;;;4.47;;
56363;SDS011;42261;52.094;4.326;2022-09-13T04:39:22;8.00;;;4.15;;
56363;SDS011;42261;52.094;4.326;2022-09-13T04:42:08;6.78;;;3.80;;
56363;SDS011;42261;52.094;4.326;2022-09-13T04:44:54;4.40;;;3.67;;
56363;SDS011;42261;52.094;4.326;2022-09-13T04:47:38;7.85;;;3.40;;
56363;SDS011;42261;52.094;4.326;2022-09-13T04:50:24;4.05;;;2.72;;
56363;SDS011;42261;52.094;4.326;2022-09-13T04:53:09;5.93;;;3.85;;
56363;SDS011;42261;52.094;4.326;2022-09-13T04:55:58;6.90;;;3.58;;
56363;SDS011;42261;52.094;4.326;2022-09-13T04:58:43;4.45;;;2.65;;
56363;SDS011;42261;52.094;4.326;2022-09-13T05:01:27;6.57;;;3.10;;
56363;SDS011;42261;52.094;4.326;2022-09-13T05:04:12;4.00;;;2.20;;
56363;SDS011;42261;52.094;4.326;2022-09-13T05:06:56;5.13;;;2.17;;
56363;SDS011;42261;52.094;4.326;2022-09-13T05:09:41;4.65;;;2.33;;
56363;SDS011;42261;52.094;4.326;2022-09-13T05:12:25;4.15;;;2.60;;
56363;SDS011;42261;52.094;4.326;2022-09-13T05:15:09;4.78;;;2.55;;
56363;SDS011;42261;52.094;4.326;2022-09-13T05:17:55;5.28;;;2.60;;
56363;SDS011;42261;52.094;4.326;2022-09-13T05:20:40;4.10;;;2.35;;
56363;SDS011;42261;52.094;4.326;2022-09-13T05:23:25;4.57;;;1.92;;
56363;SDS011;42261;52.094;4.326;2022-09-13T05:26:09;4.00;;;1.80;;
56363;SDS011;42261;52.094;4.326;2022-09-13T05:28:53;6.13;;;2.20;;
56363;SDS011;42261;52.094;4.326;2022-09-13T05:31:41;4.00;;;1.60;;
56363;SDS011;42261;52.094;4.326;2022-09-13T05:34:25;2.42;;;1.60;;
56363;SDS011;42261;52.094;4.326;2022-09-13T05:37:09;1.88;;;1.30;;
56363;SDS011;42261;52.094;4.326;2022-09-13T05:39:53;1.40;;;0.95;;
56363;SDS011;42261;52.094;4.326;2022-09-13T05:42:38;2.13;;;0.70;;
56363;SDS011;42261;52.094;4.326;2022-09-13T05:45:22;1.92;;;1.00;;
56363;SDS011;42261;52.094;4.326;2022-09-13T05:48:06;2.25;;;0.80;;
56363;SDS011;42261;52.094;4.326;2022-09-13T05:50:51;1.60;;;1.10;;
56363;SDS011;42261;52.094;4.326;2022-09-13T05:53:36;2.13;;;0.88;;
56363;SDS011;42261;52.094;4.326;2022-09-13T05:56:23;2.03;;;0.80;;
56363;SDS011;42261;52.094;4.326;2022-09-13T05:59:12;1.33;;;0.88;;
56363;SDS011;42261;52.094;4.326;2022-09-13T06:01:57;1.10;;;0.80;;
56363;SDS011;42261;52.094;4.326;2022-09-13T06:04:41;2.75;;;0.85;;
56363;SDS011;42261;52.094;4.326;2022-09-13T06:07:25;4.68;;;1.00;;
56363;SDS011;42261;52.094;4.326;2022-09-13T06:10:11;1.58;;;0.70;;
56363;SDS011;42261;52.094;4.326;2022-09-13T06:12:55;1.27;;;0.82;;
56363;SDS011;42261;52.094;4.326;2022-09-13T06:15:40;1.45;;;0.90;;
56363;SDS011;42261;52.094;4.326;2022-09-13T06:18:26;2.97;;;1.00;;
56363;SDS011;42261;52.094;4.326;2022-09-13T06:21:11;3.35;;;0.82;;
56363;SDS011;42261;52.094;4.326;2022-09-13T06:24:00;11.43;;;2.95;;
56363;SDS011;42261;52.094;4.326;2022-09-13T06:26:46;6.38;;;2.25;;
56363;SDS011;42261;52.094;4.326;2022-09-13T06:29:30;2.55;;;1.40;;
56363;SDS011;42261;52.094;4.326;2022-09-13T06:32:14;2.40;;;1.23;;
56363;SDS011;42261;52.094;4.326;2022-09-13T06:34:58;4.97;;;1.10;;
56363;SDS011;42261;52.094;4.326;2022-09-13T06:37:43;8.35;;;1.35;;
56363;SDS011;42261;52.094;4.326;2022-09-13T06:40:27;2.55;;;1.40;;
56363;SDS011;42261;52.094;4.326;2022-09-13T06:43:11;1.88;;;1.50;;
56363;SDS011;42261;52.094;4.326;2022-09-13T06:45:59;4.55;;;1.30;;
56363;SDS011;42261;52.094;4.326;2022-09-13T06:48:49;3.60;;;1.30;;
56363;SDS011;42261;52.094;4.326;2022-09-13T06:51:33;4.53;;;1.17;;
56363;SDS011;42261;52.094;4.326;2022-09-13T06:54:19;3.70;;;1.25;;
56363;SDS011;42261;52.094;4.326;2022-09-13T06:57:03;6.05;;;1.35;;
56363;SDS011;42261;52.094;4.326;2022-09-13T06:59:47;5.38;;;1.30;;
56363;SDS011;42261;52.094;4.326;2022-09-13T07:02:32;2.28;;;1.02;;
56363;SDS011;42261;52.094;4.326;2022-09-13T07:05:17;4.05;;;1.42;;
56363;SDS011;42261;52.094;4.326;2022-09-13T07:08:03;7.72;;;1.67;;
56363;SDS011;42261;52.094;4.326;2022-09-13T07:10:47;17.77;;;1.90;;
56363;SDS011;42261;52.094;4.326;2022-09-13T07:13:31;4.40;;;1.00;;
56363;SDS011;42261;52.094;4.326;2022-09-13T07:16:15;17.95;;;5.70;;
56363;SDS011;42261;52.094;4.326;2022-09-13T07:19:04;4.68;;;1.15;;
56363;SDS011;42261;52.094;4.326;2022-09-13T07:21:50;4.38;;;1.08;;
56363;SDS011;42261;52.094;4.326;2022-09-13T07:24:34;2.38;;;1.00;;
56363;SDS011;42261;52.094;4.326;2022-09-13T07:27:19;1.10;;;0.80;;
56363;SDS011;42261;52.094;4.326;2022-09-13T07:30:03;8.95;;;1.30;;
56363;SDS011;42261;52.094;4.326;2022-09-13T07:32:48;3.35;;;0.93;;
56363;SDS011;42261;52.094;4.326;2022-09-13T07:35:32;1.42;;;1.17;;
56363;SDS011;42261;52.094;4.326;2022-09-13T07:38:17;1.45;;;1.10;;
56363;SDS011;42261;52.094;4.326;2022-09-13T07:41:01;2.08;;;1.40;;
56363;SDS011;42261;52.094;4.326;2022-09-13T07:43:49;5.32;;;2.60;;
56363;SDS011;42261;52.094;4.326;2022-09-13T07:46:35;3.20;;;1.10;;
56363;SDS011;42261;52.094;4.326;2022-09-13T07:49:26;2.83;;;0.73;;
56363;SDS011;42261;52.094;4.326;2022-09-13T07:52:11;2.97;;;1.13;;
56363;SDS011;42261;52.094;4.326;2022-09-13T07:54:55;5.13;;;0.90;;
56363;SDS011;42261;52.094;4.326;2022-09-13T07:57:39;2.55;;;0.80;;
56363;SDS011;42261;52.094;4.326;2022-09-13T08:00:23;2.00;;;0.60;;
56363;SDS011;42261;52.094;4.326;2022-09-13T08:03:07;1.35;;;0.65;;
56363;SDS011;42261;52.094;4.326;2022-09-13T08:05:54;1.00;;;0.60;;
56363;SDS011;42261;52.094;4.326;2022-09-13T08:08:38;0.82;;;0.57;;
56363;SDS011;42261;52.094;4.326;2022-09-13T08:11:23;1.20;;;0.68;;
56363;SDS011;42261;52.094;4.326;2022-09-13T08:14:10;1.65;;;0.70;;
56363;SDS011;42261;52.094;4.326;2022-09-13T08:16:56;3.60;;;0.80;;
56363;SDS011;42261;52.094;4.326;2022-09-13T08:19:41;2.90;;;0.70;;
56363;SDS011;42261;52.094;4.326;2022-09-13T08:22:25;1.35;;;0.60;;
56363;SDS011;42261;52.094;4.326;2022-09-13T08:25:10;0.77;;;0.52;;
56363;SDS011;42261;52.094;4.326;2022-09-13T08:27:54;1.50;;;0.57;;
56363;SDS011;42261;52.094;4.326;2022-09-13T08:30:39;1.77;;;0.55;;
56363;SDS011;42261;52.094;4.326;2022-09-13T08:33:24;2.25;;;1.00;;
56363;SDS011;42261;52.094;4.326;2022-09-13T08:36:08;3.28;;;0.80;;
56363;SDS011;42261;52.094;4.326;2022-09-13T08:38:54;4.07;;;1.02;;
56363;SDS011;42261;52.094;4.326;2022-09-13T08:44:43;1.42;;;0.68;;
56363;SDS011;42261;52.094;4.326;2022-09-13T08:47:39;3.63;;;0.75;;
56363;SDS011;42261;52.094;4.326;2022-09-13T08:50:34;3.15;;;0.93;;
56363;SDS011;42261;52.094;4.326;2022-09-13T08:53:24;2.05;;;0.93;;
56363;SDS011;42261;52.094;4.326;2022-09-13T08:56:10;2.17;;;0.80;;
56363;SDS011;42261;52.094;4.326;2022-09-13T09:05:02;3.17;;;0.93;;
56363;SDS011;42261;52.094;4.326;2022-09-13T09:07:51;2.05;;;1.25;;
56363;SDS011;42261;52.094;4.326;2022-09-13T09:10:41;7.40;;;0.93;;
56363;SDS011;42261;52.094;4.326;2022-09-13T09:13:49;3.30;;;0.88;;
56363;SDS011;42261;52.094;4.326;2022-09-13T09:16:38;3.05;;;1.00;;
56363;SDS011;42261;52.094;4.326;2022-09-13T09:19:26;3.60;;;0.80;;
56363;SDS011;42261;52.094;4.326;2022-09-13T09:22:18;2.58;;;0.80;;
56363;SDS011;42261;52.094;4.326;2022-09-13T09:25:05;4.30;;;1.30;;
56363;SDS011;42261;52.094;4.326;2022-09-13T09:27:52;2.17;;;0.77;;
56363;SDS011;42261;52.094;4.326;2022-09-13T09:30:40;2.35;;;0.82;;
56363;SDS011;42261;52.094;4.326;2022-09-13T09:33:39;4.65;;;0.70;;
56363;SDS011;42261;52.094;4.326;2022-09-13T09:39:22;2.45;;;0.75;;
56363;SDS011;42261;52.094;4.326;2022-09-13T09:42:12;2.42;;;1.13;;
56363;SDS011;42261;52.094;4.326;2022-09-13T09:45:00;4.32;;;0.88;;
56363;SDS011;42261;52.094;4.326;2022-09-13T09:47:48;2.25;;;0.85;;
56363;SDS011;42261;52.094;4.326;2022-09-13T09:50:35;2.58;;;0.80;;
56363;SDS011;42261;52.094;4.326;2022-09-13T09:53:26;4.10;;;0.80;;
56363;SDS011;42261;52.094;4.326;2022-09-13T09:56:25;1.15;;;0.80;;
56363;SDS011;42261;52.094;4.326;2022-09-13T09:59:27;3.90;;;0.95;;
56363;SDS011;42261;52.094;4.326;2022-09-13T10:02:17;1.58;;;0.70;;
56363;SDS011;42261;52.094;4.326;2022-09-13T10:05:03;1.92;;;0.70;;
56363;SDS011;42261;52.094;4.326;2022-09-13T10:07:53;4.40;;;0.80;;
56363;SDS011;42261;52.094;4.326;2022-09-13T10:10:41;3.17;;;0.80;;
56363;SDS011;42261;52.094;4.326;2022-09-13T10:13:27;3.45;;;1.65;;
56363;SDS011;42261;52.094;4.326;2022-09-13T10:16:25;4.30;;;0.77;;
56363;SDS011;42261;52.094;4.326;2022-09-13T10:19:20;1.00;;;0.60;;
56363;SDS011;42261;52.094;4.326;2022-09-13T10:22:10;4.07;;;0.85;;
56363;SDS011;42261;52.094;4.326;2022-09-13T10:28:10;1.15;;;0.60;;
56363;SDS011;42261;52.094;4.326;2022-09-13T10:30:58;1.65;;;0.80;;
56363;SDS011;42261;52.094;4.326;2022-09-13T10:36:34;4.63;;;0.65;;
56363;SDS011;42261;52.094;4.326;2022-09-13T10:39:19;4.57;;;0.70;;
56363;SDS011;42261;52.094;4.326;2022-09-13T10:42:06;2.80;;;0.73;;
56363;SDS011;42261;52.094;4.326;2022-09-13T10:44:52;3.95;;;0.70;;
56363;SDS011;42261;52.094;4.326;2022-09-13T10:47:44;3.85;;;0.80;;
56363;SDS011;42261;52.094;4.326;2022-09-13T10:50:30;2.85;;;0.85;;
56363;SDS011;42261;52.094;4.326;2022-09-13T10:53:29;1.05;;;0.60;;
56363;SDS011;42261;52.094;4.326;2022-09-13T10:56:34;2.35;;;0.55;;
56363;SDS011;42261;52.094;4.326;2022-09-13T10:59:25;3.75;;;0.65;;
56363;SDS011;42261;52.094;4.326;2022-09-13T11:02:21;5.70;;;0.70;;
56363;SDS011;42261;52.094;4.326;2022-09-13T11:23:35;4.50;;;0.80;;
56363;SDS011;42261;52.094;4.326;2022-09-13T11:26:29;2.25;;;0.70;;
56363;SDS011;42261;52.094;4.326;2022-09-13T11:29:49;2.92;;;0.50;;
56363;SDS011;42261;52.094;4.326;2022-09-13T11:39:18;3.03;;;0.47;;
56363;SDS011;42261;52.094;4.326;2022-09-13T11:42:46;3.05;;;0.73;;
56363;SDS011;42261;52.094;4.326;2022-09-13T11:45:37;4.68;;;0.80;;
56363;SDS011;42261;52.094;4.326;2022-09-13T11:54:50;2.65;;;0.55;;
56363;SDS011;42261;52.094;4.326;2022-09-13T11:57:51;2.08;;;0.40;;
56363;SDS011;42261;52.094;4.326;2022-09-13T12:00:56;2.03;;;0.70;;
56363;SDS011;42261;52.094;4.326;2022-09-13T12:06:39;0.95;;;0.40;;
56363;SDS011;42261;52.094;4.326;2022-09-13T12:09:37;1.20;;;0.30;;
56363;SDS011;42261;52.094;4.326;2022-09-13T12:12:23;0.95;;;0.30;;
56363;SDS011;42261;52.094;4.326;2022-09-13T12:18:23;1.67;;;0.60;;
56363;SDS011;42261;52.094;4.326;2022-09-13T12:21:16;2.15;;;0.60;;
56363;SDS011;42261;52.094;4.326;2022-09-13T12:30:21;4.63;;;0.68;;
56363;SDS011;42261;52.094;4.326;2022-09-13T12:33:06;0.80;;;0.30;;
56363;SDS011;42261;52.094;4.326;2022-09-13T12:44:57;5.18;;;0.63;;
56363;SDS011;42261;52.094;4.326;2022-09-13T12:48:09;1.27;;;0.40;;
56363;SDS011;42261;52.094;4.326;2022-09-13T12:57:24;4.85;;;0.47;;
56363;SDS011;42261;52.094;4.326;2022-09-13T13:06:07;2.55;;;0.50;;
56363;SDS011;42261;52.094;4.326;2022-09-13T13:08:55;2.42;;;0.40;;
56363;SDS011;42261;52.094;4.326;2022-09-13T13:11:45;2.50;;;0.85;;
56363;SDS011;42261;52.094;4.326;2022-09-13T13:14:48;2.10;;;0.50;;
56363;SDS011;42261;52.094;4.326;2022-09-13T13:17:52;1.45;;;0.30;;
56363;SDS011;42261;52.094;4.326;2022-09-13T13:20:43;3.20;;;0.50;;
56363;SDS011;42261;52.094;4.326;2022-09-13T13:23:37;1.85;;;0.40;;
56363;SDS011;42261;52.094;4.326;2022-09-13T13:29:17;1.92;;;0.40;;
56363;SDS011;42261;52.094;4.326;2022-09-13T13:32:14;3.35;;;0.40;;
56363;SDS011;42261;52.094;4.326;2022-09-13T13:37:47;1.75;;;0.40;;
56363;SDS011;42261;52.094;4.326;2022-09-13T13:40:32;2.47;;;0.40;;
56363;SDS011;42261;52.094;4.326;2022-09-13T13:43:30;1.33;;;0.38;;
56363;SDS011;42261;52.094;4.326;2022-09-13T13:46:27;1.70;;;0.30;;
56363;SDS011;42261;52.094;4.326;2022-09-13T13:55:01;2.88;;;0.38;;
56363;SDS011;42261;52.094;4.326;2022-09-13T14:01:16;2.38;;;0.50;;
56363;SDS011;42261;52.094;4.326;2022-09-13T14:22:28;7.55;;;0.57;;
56363;SDS011;42261;52.094;4.326;2022-09-13T14:28:02;2.10;;;0.40;;
56363;SDS011;42261;52.094;4.326;2022-09-13T14:30:57;2.70;;;0.50;;
56363;SDS011;42261;52.094;4.326;2022-09-13T14:33:41;1.10;;;0.45;;
56363;SDS011;42261;52.094;4.326;2022-09-13T14:36:26;2.25;;;0.35;;
56363;SDS011;42261;52.094;4.326;2022-09-13T14:39:10;3.10;;;0.40;;
56363;SDS011;42261;52.094;4.326;2022-09-13T14:41:58;4.63;;;0.50;;
56363;SDS011;42261;52.094;4.326;2022-09-13T14:44:45;4.03;;;0.57;;
56363;SDS011;42261;52.094;4.326;2022-09-13T14:47:41;1.73;;;0.60;;
56363;SDS011;42261;52.094;4.326;2022-09-13T14:50:31;4.03;;;0.57;;
56363;SDS011;42261;52.094;4.326;2022-09-13T14:53:23;1.55;;;0.40;;
56363;SDS011;42261;52.094;4.326;2022-09-13T14:56:51;6.68;;;0.50;;
56363;SDS011;42261;52.094;4.326;2022-09-13T14:59:28;1.17;;;0.52;;
56363;SDS011;42261;52.094;4.326;2022-09-13T15:02:25;3.55;;;0.70;;
56363;SDS011;42261;52.094;4.326;2022-09-13T15:05:12;1.40;;;0.35;;
56363;SDS011;42261;52.094;4.326;2022-09-13T15:07:56;2.03;;;0.45;;
56363;SDS011;42261;52.094;4.326;2022-09-13T15:10:42;2.50;;;0.57;;
56363;SDS011;42261;52.094;4.326;2022-09-13T15:13:26;2.88;;;1.10;;
56363;SDS011;42261;52.094;4.326;2022-09-13T15:19:36;5.57;;;2.63;;
56363;SDS011;42261;52.094;4.326;2022-09-13T15:22:28;3.33;;;1.17;;
56363;SDS011;42261;52.094;4.326;2022-09-13T15:25:20;2.88;;;0.73;;
56363;SDS011;42261;52.094;4.326;2022-09-13T15:28:15;4.13;;;1.02;;
56363;SDS011;42261;52.094;4.326;2022-09-13T15:31:31;3.13;;;0.70;;
56363;SDS011;42261;52.094;4.326;2022-09-13T15:34:21;5.70;;;0.80;;
56363;SDS011;42261;52.094;4.326;2022-09-13T15:37:10;3.65;;;0.73;;
56363;SDS011;42261;52.094;4.326;2022-09-13T15:43:01;2.40;;;0.45;;
56363;SDS011;42261;52.094;4.326;2022-09-13T15:45:45;1.63;;;0.30;;
56363;SDS011;42261;52.094;4.326;2022-09-13T15:48:33;3.80;;;0.25;;
56363;SDS011;42261;52.094;4.326;2022-09-13T15:51:18;4.03;;;0.50;;
56363;SDS011;42261;52.094;4.326;2022-09-13T15:54:04;2.10;;;0.32;;
56363;SDS011;42261;52.094;4.326;2022-09-13T15:56:54;2.80;;;0.45;;
56363;SDS011;42261;52.094;4.326;2022-09-13T15:59:39;2.28;;;0.55;;
56363;SDS011;42261;52.094;4.326;2022-09-13T16:02:29;1.92;;;0.40;;
56363;SDS011;42261;52.094;4.326;2022-09-13T16:05:15;8.20;;;0.50;;
56363;SDS011;42261;52.094;4.326;2022-09-13T16:08:00;2.08;;;0.38;;
56363;SDS011;42261;52.094;4.326;2022-09-13T16:10:44;1.70;;;0.30;;
56363;SDS011;42261;52.094;4.326;2022-09-13T16:13:29;2.72;;;0.50;;
56363;SDS011;42261;52.094;4.326;2022-09-13T16:16:13;2.50;;;0.50;;
56363;SDS011;42261;52.094;4.326;2022-09-13T16:18:58;0.95;;;0.40;;
56363;SDS011;42261;52.094;4.326;2022-09-13T16:21:42;1.85;;;0.50;;
56363;SDS011;42261;52.094;4.326;2022-09-13T16:24:26;4.95;;;0.88;;
56363;SDS011;42261;52.094;4.326;2022-09-13T16:27:12;2.63;;;0.68;;
56363;SDS011;42261;52.094;4.326;2022-09-13T16:29:57;1.27;;;0.30;;
56363;SDS011;42261;52.094;4.326;2022-09-13T16:32:42;4.28;;;0.50;;
56363;SDS011;42261;52.094;4.326;2022-09-13T16:35:27;2.13;;;0.60;;
56363;SDS011;42261;52.094;4.326;2022-09-13T16:38:13;1.77;;;0.38;;
56363;SDS011;42261;52.094;4.326;2022-09-13T16:40:58;3.38;;;0.50;;
56363;SDS011;42261;52.094;4.326;2022-09-13T16:43:41;2.15;;;0.70;;
56363;SDS011;42261;52.094;4.326;2022-09-13T16:46:26;2.67;;;0.65;;
56363;SDS011;42261;52.094;4.326;2022-09-13T16:49:10;3.95;;;0.65;;
56363;SDS011;42261;52.094;4.326;2022-09-13T16:51:55;3.50;;;0.60;;
56363;SDS011;42261;52.094;4.326;2022-09-13T16:54:42;3.33;;;0.50;;
56363;SDS011;42261;52.094;4.326;2022-09-13T16:57:29;3.45;;;0.47;;
56363;SDS011;42261;52.094;4.326;2022-09-13T17:00:14;0.70;;;0.40;;
56363;SDS011;42261;52.094;4.326;2022-09-13T17:02:58;5.78;;;0.52;;
56363;SDS011;42261;52.094;4.326;2022-09-13T17:05:42;1.92;;;0.43;;
56363;SDS011;42261;52.094;4.326;2022-09-13T17:08:29;5.07;;;0.60;;
56363;SDS011;42261;52.094;4.326;2022-09-13T17:11:15;4.40;;;0.98;;
56363;SDS011;42261;52.094;4.326;2022-09-13T17:14:02;3.78;;;0.65;;
56363;SDS011;42261;52.094;4.326;2022-09-13T17:16:56;2.38;;;0.40;;
56363;SDS011;42261;52.094;4.326;2022-09-13T17:19:40;3.78;;;0.60;;
56363;SDS011;42261;52.094;4.326;2022-09-13T17:22:25;4.75;;;0.80;;
56363;SDS011;42261;52.094;4.326;2022-09-13T17:25:09;4.35;;;1.33;;
56363;SDS011;42261;52.094;4.326;2022-09-13T17:27:53;7.32;;;0.68;;
56363;SDS011;42261;52.094;4.326;2022-09-13T17:30:38;2.55;;;0.50;;
56363;SDS011;42261;52.094;4.326;2022-09-13T17:33:22;4.15;;;0.73;;
56363;SDS011;42261;52.094;4.326;2022-09-13T17:36:07;3.72;;;0.40;;
56363;SDS011;42261;52.094;4.326;2022-09-13T17:38:56;1.58;;;0.38;;
56363;SDS011;42261;52.094;4.326;2022-09-13T17:41:41;3.33;;;0.50;;
56363;SDS011;42261;52.094;4.326;2022-09-13T17:44:28;6.28;;;1.00;;
56363;SDS011;42261;52.094;4.326;2022-09-13T17:47:14;3.33;;;0.70;;
56363;SDS011;42261;52.094;4.326;2022-09-13T17:49:59;3.33;;;0.63;;
56363;SDS011;42261;52.094;4.326;2022-09-13T17:52:44;3.85;;;0.50;;
56363;SDS011;42261;52.094;4.326;2022-09-13T17:55:30;5.72;;;0.52;;
56363;SDS011;42261;52.094;4.326;2022-09-13T17:58:15;3.65;;;0.90;;
56363;SDS011;42261;52.094;4.326;2022-09-13T18:01:06;6.03;;;0.70;;
56363;SDS011;42261;52.094;4.326;2022-09-13T18:03:52;3.65;;;0.60;;
56363;SDS011;42261;52.094;4.326;2022-09-13T18:06:38;6.60;;;0.88;;
56363;SDS011;42261;52.094;4.326;2022-09-13T18:09:29;3.90;;;0.73;;
56363;SDS011;42261;52.094;4.326;2022-09-13T18:12:13;4.05;;;0.77;;
56363;SDS011;42261;52.094;4.326;2022-09-13T18:14:57;4.72;;;0.65;;
56363;SDS011;42261;52.094;4.326;2022-09-13T18:17:42;3.03;;;0.75;;
56363;SDS011;42261;52.094;4.326;2022-09-13T18:20:26;0.80;;;0.50;;
56363;SDS011;42261;52.094;4.326;2022-09-13T18:23:12;1.63;;;0.70;;
56363;SDS011;42261;52.094;4.326;2022-09-13T18:25:59;4.53;;;0.82;;
56363;SDS011;42261;52.094;4.326;2022-09-13T18:28:45;3.92;;;0.60;;
56363;SDS011;42261;52.094;4.326;2022-09-13T18:31:30;5.22;;;0.60;;
56363;SDS011;42261;52.094;4.326;2022-09-13T18:34:15;4.95;;;0.63;;
56363;SDS011;42261;52.094;4.326;2022-09-13T18:36:59;4.50;;;0.80;;
56363;SDS011;42261;52.094;4.326;2022-09-13T18:39:44;7.28;;;0.95;;
56363;SDS011;42261;52.094;4.326;2022-09-13T18:42:28;2.80;;;0.98;;
56363;SDS011;42261;52.094;4.326;2022-09-13T18:45:13;6.18;;;1.17;;
56363;SDS011;42261;52.094;4.326;2022-09-13T18:47:57;2.00;;;0.80;;
56363;SDS011;42261;52.094;4.326;2022-09-13T18:50:42;14.20;;;0.85;;
56363;SDS011;42261;52.094;4.326;2022-09-13T18:53:26;1.98;;;0.63;;
56363;SDS011;42261;52.094;4.326;2022-09-13T18:56:14;3.55;;;0.75;;
56363;SDS011;42261;52.094;4.326;2022-09-13T18:59:00;3.33;;;1.08;;
56363;SDS011;42261;52.094;4.326;2022-09-13T19:01:44;4.60;;;1.27;;
56363;SDS011;42261;52.094;4.326;2022-09-13T19:04:28;3.60;;;1.00;;
56363;SDS011;42261;52.094;4.326;2022-09-13T19:07:14;5.25;;;1.30;;
56363;SDS011;42261;52.094;4.326;2022-09-13T19:09:59;2.85;;;0.80;;
56363;SDS011;42261;52.094;4.326;2022-09-13T19:12:43;7.85;;;1.30;;
56363;SDS011;42261;52.094;4.326;2022-09-13T19:15:27;2.85;;;0.75;;
56363;SDS011;42261;52.094;4.326;2022-09-13T19:18:11;4.85;;;1.38;;
56363;SDS011;42261;52.094;4.326;2022-09-13T19:21:02;8.27;;;1.98;;
56363;SDS011;42261;52.094;4.326;2022-09-13T19:23:48;6.63;;;1.50;;
56363;SDS011;42261;52.094;4.326;2022-09-13T19:26:33;7.70;;;1.23;;
56363;SDS011;42261;52.094;4.326;2022-09-13T19:29:20;5.68;;;1.38;;
56363;SDS011;42261;52.094;4.326;2022-09-13T19:32:05;6.15;;;1.42;;
56363;SDS011;42261;52.094;4.326;2022-09-13T19:34:50;7.85;;;1.77;;
56363;SDS011;42261;52.094;4.326;2022-09-13T19:37:33;4.45;;;1.30;;
56363;SDS011;42261;52.094;4.326;2022-09-13T19:40:18;5.88;;;1.30;;
56363;SDS011;42261;52.094;4.326;2022-09-13T19:43:02;3.03;;;1.30;;
56363;SDS011;42261;52.094;4.326;2022-09-13T19:45:54;5.75;;;1.02;;
56363;SDS011;42261;52.094;4.326;2022-09-13T19:48:43;4.53;;;1.17;;
56363;SDS011;42261;52.094;4.326;2022-09-13T19:51:29;3.17;;;0.77;;
56363;SDS011;42261;52.094;4.326;2022-09-13T19:54:15;5.63;;;1.48;;